Time;durP1;ratioP1;P1;durP2;ratioP2;P2;SDS_P1;SDS_P2;PMS_P1;PMS_P2;Temp;Humidity;BMP_temperature;BMP_pressure;BME280_temperature;BME280_humidity;BME280_pressure;Samples;Min_cycle;Max_cycle;Signal;HPM_P1;HPM_P2
2022/07/09 04:24:26;;;;;;;8.45;3.17;;;16.50;99.90;;;;;;5700682;24;20585;-74
2022/07/09 04:26:54;;;;;;;10.50;3.58;;;16.60;99.90;;;;;;4736867;30;20068;-77
2022/07/09 04:29:20;;;;;;;8.38;3.15;;;16.60;99.90;;;;;;4706078;30;20061;-71
2022/07/09 04:31:46;;;;;;;7.47;3.20;;;16.60;99.90;;;;;;4697516;30;20513;-74
2022/07/09 04:34:17;;;;;;;7.82;3.50;;;16.70;99.90;;;;;;4705375;30;20059;-72
2022/07/09 04:36:43;;;;;;;11.50;3.58;;;16.70;99.90;;;;;;4704878;30;20053;-74
2022/07/09 04:39:09;;;;;;;10.40;3.60;;;16.70;99.90;;;;;;4704533;30;20045;-71
2022/07/09 04:41:35;;;;;;;6.82;3.20;;;16.80;99.90;;;;;;4689898;30;20137;-71
2022/07/09 04:44:01;;;;;;;7.13;2.95;;;16.80;99.90;;;;;;4705246;30;20131;-71
2022/07/09 04:46:27;;;;;;;6.85;3.08;;;16.80;99.90;;;;;;4690898;30;20057;-72
2022/07/09 04:48:53;;;;;;;11.77;2.75;;;16.90;99.90;;;;;;4705180;30;20127;-71
2022/07/09 04:51:19;;;;;;;12.10;3.22;;;16.90;99.90;;;;;;4704252;30;20145;-71
2022/07/09 04:53:44;;;;;;;6.85;2.63;;;16.90;99.90;;;;;;4704759;30;20136;-72
2022/07/09 04:56:10;;;;;;;6.18;2.60;;;17.00;99.90;;;;;;4689366;30;20053;-72
2022/07/09 04:58:37;;;;;;;13.13;2.40;;;17.00;99.90;;;;;;4689418;30;20061;-70
2022/07/09 05:01:03;;;;;;;6.93;2.67;;;17.10;99.90;;;;;;4703412;30;20445;-72
2022/07/09 05:03:29;;;;;;;6.22;2.33;;;17.10;99.90;;;;;;4703098;30;20491;-71
2022/07/09 05:05:55;;;;;;;12.25;2.53;;;17.20;99.90;;;;;;4703604;30;20073;-71
2022/07/09 05:08:21;;;;;;;10.05;3.03;;;17.20;99.90;;;;;;4703612;30;20049;-72
2022/07/09 05:10:46;;;;;;;11.35;2.67;;;17.30;99.90;;;;;;4689804;30;20049;-71
2022/07/09 05:13:12;;;;;;;6.47;2.38;;;17.30;99.90;;;;;;4704568;30;20059;-71
2022/07/09 05:15:38;;;;;;;10.00;2.40;;;17.40;99.90;;;;;;4704541;30;20060;-71
2022/07/09 05:18:04;;;;;;;8.48;2.88;;;17.40;99.90;;;;;;4690337;30;20056;-72
2022/07/09 05:20:30;;;;;;;7.55;2.85;;;17.40;99.90;;;;;;4690419;30;20049;-72
2022/07/09 05:22:56;;;;;;;;;;;17.40;99.90;;;;;;4704805;30;20060;-71
2022/07/09 05:25:22;;;;;;;8.68;2.40;;;17.40;99.90;;;;;;4703447;30;19927;-72
2022/07/09 05:27:48;;;;;;;8.23;2.50;;;17.50;99.90;;;;;;4704619;30;20063;-72
2022/07/09 05:30:15;;;;;;;12.85;3.00;;;17.50;99.90;;;;;;4704450;30;20412;-71
2022/07/09 05:32:41;;;;;;;7.45;2.47;;;17.50;99.90;;;;;;4689718;30;20132;-72
2022/07/09 05:35:08;;;;;;;8.93;2.30;;;17.60;99.90;;;;;;4683871;30;20493;-72
2022/07/09 05:37:39;;;;;;;5.35;2.10;;;17.60;99.90;;;;;;4673032;30;20058;-71
2022/07/09 05:40:06;;;;;;;4.75;2.10;;;17.60;99.90;;;;;;4686885;30;20484;-71
2022/07/09 05:42:32;;;;;;;7.15;2.10;;;17.70;99.90;;;;;;4694838;30;20049;-71
2022/07/09 05:44:59;;;;;;;10.43;3.13;;;17.70;99.90;;;;;;4704148;30;20061;-72
2022/07/09 05:47:25;;;;;;;6.97;2.13;;;17.80;99.90;;;;;;4689435;30;20060;-72
2022/07/09 05:49:50;;;;;;;5.22;2.10;;;17.80;99.90;;;;;;4703969;30;20131;-72
2022/07/09 05:52:16;;;;;;;6.78;2.42;;;17.80;99.90;;;;;;4711816;30;20136;-73
2022/07/09 05:54:42;;;;;;;9.90;2.30;;;17.80;99.90;;;;;;4686924;30;20046;-72
2022/07/09 05:57:07;;;;;;;9.88;2.35;;;17.80;99.90;;;;;;4686812;30;20049;-71
2022/07/09 05:59:33;;;;;;;8.50;2.45;;;17.90;99.90;;;;;;4686589;30;20050;-71
2022/07/09 06:01:59;;;;;;;7.22;2.50;;;17.90;99.90;;;;;;4676181;30;20084;-71
2022/07/09 06:04:26;;;;;;;8.80;3.00;;;18.00;99.90;;;;;;4703829;30;20057;-72
2022/07/09 06:06:51;;;;;;;13.05;2.30;;;18.10;99.90;;;;;;4703722;30;20554;-72
2022/07/09 06:09:17;;;;;;;10.48;2.30;;;18.10;99.90;;;;;;4675262;30;20139;-71
2022/07/09 06:11:43;;;;;;;14.10;2.40;;;18.10;99.90;;;;;;4703763;30;20093;-71
2022/07/09 06:14:08;;;;;;;6.30;2.15;;;18.20;99.90;;;;;;4703747;30;20088;-72
2022/07/09 06:16:34;;;;;;;7.68;2.10;;;18.20;99.90;;;;;;4689067;30;20065;-73
2022/07/09 06:19:00;;;;;;;11.13;2.55;;;18.20;99.90;;;;;;4718804;30;20056;-71
2022/07/09 06:21:25;;;;;;;7.90;2.40;;;18.20;99.90;;;;;;4688522;30;20198;-72
2022/07/09 06:23:51;;;;;;;6.20;2.65;;;18.20;99.90;;;;;;4689694;30;20049;-74
2022/07/09 06:26:30;;;;;;;8.05;2.28;;;18.20;99.90;;;;;;4702493;30;20065;-75
2022/07/09 06:28:56;;;;;;;20.95;2.33;;;18.20;99.90;;;;;;4689365;30;20057;-76
2022/07/09 06:31:24;;;;;;;9.32;2.22;;;18.20;99.90;;;;;;4703126;30;20052;-77
2022/07/09 06:34:10;;;;;;;7.93;1.92;;;18.30;99.90;;;;;;4703115;30;20410;-76
2022/07/09 06:36:44;;;;;;;8.95;2.33;;;18.30;99.90;;;;;;4689284;30;20067;-74
2022/07/09 06:42:44;;;;;;;9.65;2.00;;;18.40;99.90;;;;;;4716970;30;20064;-78
2022/07/09 06:45:19;;;;;;;10.75;2.25;;;18.50;99.90;;;;;;4703682;30;20064;-76
2022/07/09 06:47:50;;;;;;;12.20;2.10;;;18.50;99.90;;;;;;4691964;30;20575;-76
2022/07/09 06:50:22;;;;;;;12.73;2.40;;;18.60;99.90;;;;;;4677929;30;20570;-76
2022/07/09 06:52:56;;;;;;;18.80;2.60;;;18.50;99.90;;;;;;4688135;30;20133;-77
2022/07/09 06:55:28;;;;;;;13.93;2.97;;;18.70;99.90;;;;;;4702753;30;20078;-77
2022/07/09 06:58:04;;;;;;;7.25;2.00;;;18.50;99.90;;;;;;4688284;30;20115;-77
2022/07/09 07:00:30;;;;;;;15.37;2.23;;;18.60;99.90;;;;;;4687462;30;20053;-77
2022/07/09 07:03:01;;;;;;;7.97;1.98;;;18.60;99.90;;;;;;4691487;30;20048;-77
2022/07/09 07:05:32;;;;;;;10.68;2.47;;;18.60;99.90;;;;;;4720000;30;20048;-76
2022/07/09 07:07:57;;;;;;;8.98;1.90;;;18.60;99.90;;;;;;4699616;30;20381;-78
2022/07/09 07:10:23;;;;;;;10.25;2.10;;;18.60;99.90;;;;;;4671186;30;20111;-79
2022/07/09 07:12:49;;;;;;;10.88;2.45;;;18.60;99.90;;;;;;4670992;30;20045;-77
2022/07/09 07:15:17;;;;;;;8.15;1.88;;;18.60;99.90;;;;;;4698273;30;20144;-76
2022/07/09 07:17:43;;;;;;;10.32;2.20;;;18.60;99.90;;;;;;4707847;30;20053;-75
2022/07/09 07:20:09;;;;;;;8.40;2.35;;;18.70;99.90;;;;;;4670573;30;20065;-77
2022/07/09 07:22:35;;;;;;;;;;;18.70;99.90;;;;;;4670965;30;20057;-78
2022/07/09 07:25:01;;;;;;;9.82;2.22;;;18.70;99.90;;;;;;4700074;30;19934;-81
2022/07/09 07:27:29;;;;;;;10.52;2.50;;;18.70;99.90;;;;;;4716932;30;20511;-78
2022/07/09 07:29:54;;;;;;;13.23;2.60;;;18.80;99.90;;;;;;4716803;30;20064;-77
2022/07/09 07:32:20;;;;;;;8.82;1.98;;;18.90;99.90;;;;;;4702174;30;20049;-77
2022/07/09 07:34:46;;;;;;;9.60;1.95;;;19.20;99.90;;;;;;4689088;30;20124;-71
2022/07/09 07:37:12;;;;;;;12.27;2.28;;;19.60;99.90;;;;;;4685096;30;20045;-80
2022/07/09 07:43:35;;;;;;;9.35;1.63;;;19.70;99.90;;;;;;4702537;30;20459;-80
2022/07/09 07:46:32;;;;;;;5.53;1.75;;;20.20;99.90;;;;;;4702093;30;20061;-80
2022/07/09 07:49:18;;;;;;;9.88;1.80;;;20.60;99.90;;;;;;4701614;30;20140;-80
2022/07/09 07:52:27;;;;;;;8.45;2.10;;;20.80;99.90;;;;;;4687336;30;20057;-79
2022/07/09 07:55:11;;;;;;;9.05;1.60;;;21.10;99.90;;;;;;4672779;30;20065;-78
2022/07/09 07:58:05;;;;;;;8.00;1.52;;;21.20;99.90;;;;;;4672699;30;20049;-78
2022/07/09 08:00:37;;;;;;;8.75;1.85;;;21.20;99.90;;;;;;4695120;30;20443;-81
2022/07/09 08:03:11;;;;;;;6.57;1.55;;;21.00;99.60;;;;;;4687796;30;20060;-79
2022/07/09 08:05:51;;;;;;;7.63;2.20;;;21.00;99.90;;;;;;4688169;30;20041;-80
2022/07/09 08:08:25;;;;;;;11.10;2.20;;;21.10;99.90;;;;;;4687249;30;20060;-74
2022/07/09 08:11:21;;;;;;;;;;;;;;;;;;;;;
2022/07/09 08:14:23;;;;;;;3.75;1.40;;;21.20;99.90;;;;;;4705955;30;20060;-81
2022/07/09 08:17:36;;;;;;;7.82;1.60;;;21.60;98.70;;;;;;4696651;30;20399;-79
2022/07/09 08:36:03;;;;;;;10.07;2.10;;;21.80;97.60;;;;;;4640915;30;20059;-80
2022/07/09 08:39:30;;;;;;;5.70;1.40;;;22.40;96.80;;;;;;4646523;30;20049;-78
2022/07/09 08:47:29;;;;;;;10.03;1.93;;;22.00;96.60;;;;;;4490617;27;18757508;-79
2022/07/09 08:50:18;;;;;;;10.57;1.80;;;21.50;97.00;;;;;;5118577;27;20051;-78
2022/07/09 08:53:23;;;;;;;11.35;1.95;;;21.40;97.50;;;;;;5094657;28;20070;-78
2022/07/09 08:57:03;;;;;;;8.88;1.63;;;21.30;97.50;;;;;;5104758;28;20558;-79
2022/07/09 09:03:54;;;;;;;11.20;1.85;;;20.90;97.80;;;;;;5115258;28;20054;-78
2022/07/09 09:06:39;;;;;;;8.00;2.00;;;21.00;97.70;;;;;;5088318;28;20055;-79
2022/07/09 09:09:59;;;;;;;5.95;1.40;;;21.10;97.70;;;;;;5115337;28;20047;-78
2022/07/09 09:12:47;;;;;;;;;;;;;;;;;;;;;
2022/07/09 09:15:50;;;;;;;;;;;;;;;;;;;;;
2022/07/09 09:19:01;;;;;;;10.00;1.98;;;21.30;97.00;;;;;;5131042;27;20059;-81
2022/07/09 09:21:45;;;;;;;9.50;1.95;;;21.30;96.90;;;;;;5112387;28;20046;-78
2022/07/09 09:24:29;;;;;;;13.35;2.40;;;21.00;97.30;;;;;;5096803;28;20043;-77
2022/07/09 09:27:10;;;;;;;8.02;1.75;;;20.80;98.10;;;;;;5113030;28;20039;-82
2022/07/09 09:29:58;;;;;;;11.30;1.98;;;20.80;98.60;;;;;;5095783;28;20417;-78
2022/07/09 09:32:30;;;;;;;9.48;1.80;;;21.00;98.20;;;;;;5113225;28;20110;-77
2022/07/09 09:35:23;;;;;;;;;;;;;;;;;;;;;
2022/07/09 09:38:13;;;;;;;7.53;1.60;;;21.30;97.10;;;;;;5073234;28;20511;-79
2022/07/09 09:41:09;;;;;;;8.43;2.05;;;21.50;97.30;;;;;;5102064;28;20391;-79
2022/07/09 09:44:32;;;;;;;10.82;2.25;;;21.50;96.90;;;;;;5105338;28;20134;-79
2022/07/09 09:47:03;;;;;;;9.43;2.25;;;21.50;96.20;;;;;;5093697;28;20434;-77
2022/07/09 09:49:37;;;;;;;13.57;2.22;;;21.30;97.20;;;;;;5129754;28;20042;-79
2022/07/09 09:52:08;;;;;;;10.23;2.22;;;21.00;96.90;;;;;;5110481;28;20051;-71
2022/07/09 09:54:38;;;;;;;12.60;1.65;;;20.80;97.10;;;;;;5126660;28;20126;-72
2022/07/09 09:57:09;;;;;;;8.82;1.90;;;20.60;97.70;;;;;;5100279;28;20042;-72
2022/07/09 09:59:50;;;;;;;9.13;2.00;;;19.80;99.90;;;;;;5113997;28;20039;-82
2022/07/09 10:02:20;;;;;;;11.52;2.22;;;19.50;99.90;;;;;;5111678;28;20123;-71
2022/07/09 10:04:46;;;;;;;8.50;2.03;;;19.10;99.90;;;;;;5096282;28;20046;-74
2022/07/09 10:07:14;;;;;;;9.15;2.45;;;18.80;99.90;;;;;;5094494;28;20036;-75
2022/07/09 10:09:40;;;;;;;9.23;2.20;;;18.60;99.90;;;;;;5111095;28;20051;-74
2022/07/09 10:12:08;;;;;;;;;;;18.40;99.90;;;;;;5114735;28;20487;-72
2022/07/09 10:14:36;;;;;;;12.52;2.35;;;18.10;99.90;;;;;;5115625;28;19919;-72
2022/07/09 10:17:11;;;;;;;12.63;2.10;;;18.30;99.90;;;;;;5097771;28;20079;-71
2022/07/09 10:19:37;;;;;;;12.50;2.50;;;18.40;99.90;;;;;;5098509;28;20051;-72
2022/07/09 10:22:03;;;;;;;12.15;2.30;;;18.50;99.90;;;;;;5115126;28;20483;-74
2022/07/09 10:24:31;;;;;;;10.88;2.33;;;18.60;99.90;;;;;;5115526;28;20044;-72
2022/07/09 10:27:08;;;;;;;7.50;1.90;;;18.60;99.10;;;;;;5113903;28;20073;-73
2022/07/09 10:29:35;;;;;;;5.50;1.20;;;18.80;99.30;;;;;;5094990;28;20508;-73
2022/07/09 10:32:02;;;;;;;12.75;2.15;;;19.20;97.60;;;;;;5094844;28;20044;-74
2022/07/09 10:34:55;;;;;;;9.00;1.80;;;19.20;96.40;;;;;;5094632;28;20527;-72
2022/07/09 10:37:42;;;;;;;8.07;1.85;;;19.00;96.20;;;;;;5098771;28;20036;-74
2022/07/09 10:40:11;;;;;;;7.20;2.35;;;19.00;96.60;;;;;;5113780;28;20056;-72
2022/07/09 10:43:10;;;;;;;9.43;1.80;;;18.90;96.10;;;;;;5097829;28;20097;-77
2022/07/09 10:46:29;;;;;;;16.88;2.28;;;18.90;95.60;;;;;;5095391;28;20066;-76
2022/07/09 10:49:06;;;;;;;9.13;1.58;;;19.00;96.20;;;;;;5097980;28;20043;-76
2022/07/09 10:51:41;;;;;;;8.98;1.10;;;19.00;95.50;;;;;;5094350;28;20028;-77
2022/07/09 10:54:36;;;;;;;7.35;1.73;;;19.10;95.20;;;;;;5077244;28;20123;-77
2022/07/09 10:57:28;;;;;;;14.23;1.48;;;19.20;94.50;;;;;;5076789;28;20044;-77
2022/07/09 10:59:59;;;;;;;5.57;1.15;;;19.20;94.20;;;;;;5074208;28;20044;-76
2022/07/09 11:02:40;;;;;;;7.88;1.38;;;19.30;94.20;;;;;;5095066;28;20471;-77
2022/07/09 11:05:32;;;;;;;6.22;1.33;;;19.50;92.90;;;;;;5081706;28;20039;-78
2022/07/09 11:08:06;;;;;;;10.35;1.90;;;19.90;93.20;;;;;;5098674;28;20093;-78
2022/07/09 11:14:09;;;;;;;13.70;1.63;;;19.80;93.00;;;;;;5113952;28;20044;-77
2022/07/09 11:16:59;;;;;;;5.95;1.30;;;20.00;92.70;;;;;;5081202;28;20373;-75
2022/07/09 11:19:42;;;;;;;7.47;1.60;;;19.80;92.30;;;;;;5076612;28;20047;-76
2022/07/09 11:22:20;;;;;;;8.18;1.40;;;19.90;92.70;;;;;;5076384;28;20055;-76
2022/07/09 11:24:52;;;;;;;6.63;1.52;;;20.10;92.10;;;;;;5076884;28;20052;-75
2022/07/09 11:27:23;;;;;;;4.78;1.27;;;20.30;91.80;;;;;;5097430;28;20039;-76
2022/07/09 11:30:04;;;;;;;7.07;1.38;;;20.20;91.30;;;;;;5097282;28;20036;-75
2022/07/09 11:35:46;;;;;;;7.60;1.45;;;20.00;90.90;;;;;;5101278;28;20047;-76
2022/07/09 11:38:15;;;;;;;14.02;1.77;;;19.70;91.10;;;;;;5097285;28;20459;-75
2022/07/09 11:40:40;;;;;;;7.53;1.23;;;19.60;91.50;;;;;;5095983;28;20131;-75
2022/07/09 11:43:14;;;;;;;8.57;1.33;;;19.50;91.40;;;;;;5096808;28;20108;-75
2022/07/09 11:45:55;;;;;;;6.13;1.50;;;19.60;91.40;;;;;;5107583;28;20060;-75
2022/07/09 11:48:24;;;;;;;7.00;1.17;;;19.60;90.60;;;;;;5079899;28;20048;-76
2022/07/09 11:50:49;;;;;;;10.88;2.10;;;19.80;91.50;;;;;;5079647;28;20035;-74
2022/07/09 11:53:37;;;;;;;9.65;1.42;;;19.70;91.60;;;;;;5096362;28;20036;-80
2022/07/09 11:56:06;;;;;;;8.27;1.58;;;19.70;91.10;;;;;;5073861;27;20039;-75
2022/07/09 11:58:37;;;;;;;4.07;1.02;;;19.70;91.40;;;;;;5100024;27;20130;-76
2022/07/09 12:01:10;;;;;;;5.38;1.42;;;19.80;91.60;;;;;;5116109;27;20398;-76
2022/07/09 12:03:50;;;;;;;6.43;1.65;;;19.80;89.90;;;;;;5100043;27;20043;-76
2022/07/09 12:06:16;;;;;;;7.60;1.60;;;19.60;90.80;;;;;;5086198;28;20377;-76
2022/07/09 12:08:43;;;;;;;9.07;1.95;;;19.70;90.90;;;;;;5096206;28;20114;-75
2022/07/09 12:11:09;;;;;;;7.15;1.38;;;19.80;90.90;;;;;;5079525;28;20069;-75
2022/07/09 12:13:37;;;;;;;5.85;1.25;;;19.90;91.30;;;;;;5095044;28;20431;-76
2022/07/09 12:16:03;;;;;;;7.53;1.35;;;20.00;90.80;;;;;;5072802;27;20047;-75
2022/07/09 12:18:29;;;;;;;8.55;1.52;;;19.90;90.30;;;;;;5100003;27;20054;-74
2022/07/09 12:21:01;;;;;;;7.82;1.45;;;19.90;91.00;;;;;;5099549;27;20505;-76
2022/07/09 12:23:27;;;;;;;7.13;1.50;;;20.00;91.20;;;;;;5099124;27;20047;-73
2022/07/09 12:25:53;;;;;;;7.03;1.45;;;20.10;90.40;;;;;;5090085;28;20499;-75
2022/07/09 12:28:18;;;;;;;6.70;1.45;;;20.20;91.30;;;;;;5095947;28;20030;-74
2022/07/09 12:30:44;;;;;;;7.88;1.92;;;20.30;90.90;;;;;;5062322;28;20569;-75
2022/07/09 12:33:12;;;;;;;7.95;1.20;;;20.30;91.20;;;;;;5095811;28;20364;-76
2022/07/09 12:35:40;;;;;;;6.63;1.30;;;20.30;90.50;;;;;;5103004;27;20348;-76
2022/07/09 12:38:07;;;;;;;8.43;1.73;;;20.10;90.80;;;;;;5101327;28;20039;-75
2022/07/09 12:40:32;;;;;;;;;;;20.20;91.50;;;;;;5096525;28;20093;-74
2022/07/09 12:42:58;;;;;;;5.15;1.20;;;20.20;90.10;;;;;;5079068;28;19959;-76
2022/07/09 12:45:26;;;;;;;7.00;1.23;;;20.30;90.40;;;;;;5079144;28;20028;-76
2022/07/09 12:47:52;;;;;;;11.38;1.60;;;20.40;90.20;;;;;;5087173;28;20047;-76
2022/07/09 12:50:18;;;;;;;6.15;1.30;;;20.50;89.90;;;;;;5115808;28;20061;-77
2022/07/09 12:52:46;;;;;;;4.47;1.10;;;20.30;89.00;;;;;;5082525;28;20047;-78
2022/07/09 12:55:16;;;;;;;4.40;0.95;;;20.20;89.40;;;;;;5096352;28;20044;-74
2022/07/09 12:57:42;;;;;;;5.13;1.20;;;20.30;90.30;;;;;;5095830;28;20047;-76
2022/07/09 13:00:11;;;;;;;13.15;1.58;;;20.40;90.50;;;;;;5095275;28;20384;-75
2022/07/09 13:02:40;;;;;;;8.55;2.58;;;20.40;90.10;;;;;;5095494;28;20035;-75
2022/07/09 13:05:06;;;;;;;8.88;1.90;;;20.40;90.40;;;;;;5078951;28;20434;-74
2022/07/09 13:07:32;;;;;;;9.90;1.65;;;20.50;90.60;;;;;;5099276;28;20072;-75
2022/07/09 13:10:00;;;;;;;6.65;1.10;;;20.40;90.50;;;;;;5098941;28;20047;-74
2022/07/09 13:12:29;;;;;;;7.60;1.63;;;20.40;90.10;;;;;;5115818;28;20172;-76
2022/07/09 13:14:54;;;;;;;5.70;1.42;;;20.40;90.70;;;;;;5098974;28;20131;-75
2022/07/09 13:17:23;;;;;;;7.35;1.55;;;20.60;91.50;;;;;;5079126;28;20043;-74
2022/07/09 13:19:52;;;;;;;10.82;1.98;;;20.60;90.50;;;;;;5078492;28;20130;-76
2022/07/09 13:22:18;;;;;;;17.42;2.35;;;20.60;91.10;;;;;;5077928;28;20051;-74
2022/07/09 13:24:46;;;;;;;11.90;1.80;;;20.30;91.00;;;;;;5095111;28;20043;-76
2022/07/09 13:27:12;;;;;;;8.07;1.60;;;20.30;90.90;;;;;;5090773;28;20055;-74
2022/07/09 13:29:55;;;;;;;10.50;2.00;;;20.30;91.70;;;;;;5098907;28;20425;-74
2022/07/09 13:33:00;;;;;;;7.82;1.60;;;20.10;91.90;;;;;;5117047;27;20043;-79
2022/07/09 13:36:02;;;;;;;9.68;2.00;;;19.90;92.80;;;;;;5098651;28;20377;-73
2022/07/09 13:38:28;;;;;;;10.65;2.13;;;19.40;94.00;;;;;;5078418;28;20055;-72
2022/07/09 13:41:40;;;;;;;10.88;2.15;;;19.60;93.90;;;;;;5098952;28;20040;-77
2022/07/09 13:44:16;;;;;;;13.10;1.95;;;19.50;92.60;;;;;;5116907;27;20400;-70
2022/07/09 13:46:42;;;;;;;6.85;1.40;;;19.50;93.30;;;;;;5101835;28;20052;-70
2022/07/09 13:49:07;;;;;;;7.05;1.65;;;19.50;93.40;;;;;;5100243;28;20147;-72
2022/07/09 13:51:33;;;;;;;7.57;1.83;;;19.60;92.80;;;;;;5085591;28;20044;-74
2022/07/09 13:53:59;;;;;;;6.55;1.40;;;19.60;92.10;;;;;;5076308;28;20043;-73
2022/07/09 13:56:25;;;;;;;8.05;2.25;;;19.50;92.40;;;;;;5100890;28;20032;-63
2022/07/09 13:58:50;;;;;;;7.13;1.50;;;19.50;91.80;;;;;;5096398;28;20043;-65
2022/07/09 14:01:16;;;;;;;4.55;1.58;;;19.40;91.90;;;;;;5069083;28;20036;-68
2022/07/09 14:03:42;;;;;;;9.63;1.33;;;19.50;91.80;;;;;;5089629;28;20402;-66
2022/07/09 14:06:08;;;;;;;9.38;1.30;;;19.50;91.60;;;;;;5097138;28;20036;-66
2022/07/09 14:08:34;;;;;;;9.60;1.42;;;19.70;91.00;;;;;;5094972;28;20112;-67
2022/07/09 14:11:00;;;;;;;7.10;1.48;;;19.70;89.90;;;;;;5099955;28;20047;-66
2022/07/09 14:13:26;;;;;;;;;;;19.50;88.90;;;;;;5081853;28;20388;-67
2022/07/09 14:15:54;;;;;;;6.75;1.30;;;19.50;89.50;;;;;;5100193;28;19923;-69
2022/07/09 14:18:20;;;;;;;5.82;1.10;;;19.50;89.90;;;;;;5083843;28;20109;-69
2022/07/09 14:20:45;;;;;;;4.55;1.15;;;19.40;89.40;;;;;;5097276;28;20048;-66
2022/07/09 14:23:11;;;;;;;4.18;1.33;;;19.60;90.10;;;;;;5100427;28;20055;-67
2022/07/09 14:25:37;;;;;;;8.70;1.48;;;19.90;90.30;;;;;;5105464;28;20044;-67
2022/07/09 14:28:02;;;;;;;6.38;1.40;;;20.10;89.80;;;;;;5101521;28;20101;-67
2022/07/09 14:30:28;;;;;;;8.68;1.92;;;19.90;89.80;;;;;;5097853;28;20123;-68
2022/07/09 14:32:56;;;;;;;5.93;1.38;;;20.10;89.50;;;;;;5102305;28;20047;-67
2022/07/09 14:35:21;;;;;;;5.60;1.33;;;20.10;89.90;;;;;;5094427;28;20072;-69
2022/07/09 14:37:47;;;;;;;7.65;1.50;;;20.10;88.40;;;;;;5094636;28;20114;-67
2022/07/09 14:40:13;;;;;;;;;;;20.00;88.80;;;;;;5102614;28;20043;-68
2022/07/09 14:42:40;;;;;;;9.13;1.27;;;20.00;89.50;;;;;;5100747;28;20278;-67
2022/07/09 14:45:06;;;;;;;7.32;1.10;;;20.00;89.60;;;;;;5103161;28;20039;-67
2022/07/09 14:47:32;;;;;;;9.35;1.70;;;19.80;89.10;;;;;;5089044;28;20056;-66
2022/07/09 14:49:58;;;;;;;52.25;9.73;;;19.80;90.50;;;;;;5097798;28;20063;-67
2022/07/09 14:52:23;;;;;;;;;;;20.00;91.10;;;;;;5086272;28;20391;-66
2022/07/09 14:54:49;;;;;;;11.32;1.70;;;20.00;90.20;;;;;;5090318;28;20389;-67
2022/07/09 14:57:14;;;;;;;8.95;1.70;;;20.00;90.70;;;;;;5097133;28;20062;-67
2022/07/09 14:59:40;;;;;;;6.82;1.17;;;19.90;90.20;;;;;;5094999;28;20047;-69
2022/07/09 15:02:06;;;;;;;;;;;19.90;90.40;;;;;;5100583;28;20072;-71
2022/07/09 15:04:31;;;;;;;7.18;1.55;;;20.00;90.10;;;;;;5099836;28;19924;-68
2022/07/09 15:14:25;;;;;;;8.55;1.58;;;20.50;89.60;;;;;;5084282;28;20051;-80
2022/07/09 15:16:51;;;;;;;8.18;1.05;;;20.20;89.70;;;;;;5093769;28;20040;-72
2022/07/09 15:19:17;;;;;;;7.53;1.40;;;19.90;90.00;;;;;;5108883;28;20043;-75
2022/07/09 15:21:49;;;;;;;7.05;1.13;;;19.80;90.50;;;;;;5088525;28;20484;-78
2022/07/09 15:24:17;;;;;;;8.85;1.20;;;19.70;90.80;;;;;;5108501;28;20074;-75
2022/07/09 15:26:42;;;;;;;10.30;1.70;;;19.70;90.60;;;;;;5091247;28;20039;-75
2022/07/09 15:29:08;;;;;;;10.20;1.40;;;20.00;91.50;;;;;;5089381;28;20051;-75
2022/07/09 15:31:36;;;;;;;8.05;1.42;;;20.10;90.60;;;;;;5087573;28;20173;-75
2022/07/09 15:34:04;;;;;;;7.07;1.30;;;20.10;90.70;;;;;;5088537;28;20036;-74
2022/07/09 15:37:07;;;;;;;7.47;1.27;;;20.10;90.90;;;;;;5088344;28;20043;-80
2022/07/09 15:43:18;;;;;;;7.93;1.30;;;19.90;85.50;;;;;;5033545;28;20041;-78
2022/07/09 15:45:44;;;;;;;6.82;1.20;;;20.10;87.60;;;;;;5017042;28;20045;-75
2022/07/09 16:14:43;;;;;;;3.35;1.08;;;19.80;88.80;;;;;;4871256;29;20517;-76
2022/07/09 16:17:09;;;;;;;4.38;1.15;;;19.80;85.70;;;;;;4863237;29;20061;-77
2022/07/09 16:19:44;;;;;;;4.22;0.98;;;19.60;87.00;;;;;;4876562;29;20504;-76
2022/07/09 16:26:05;;;;;;;6.45;1.15;;;19.50;86.50;;;;;;4877191;29;20059;-78
2022/07/09 16:28:31;;;;;;;5.32;1.30;;;19.70;85.00;;;;;;4878319;29;20409;-73
2022/07/09 16:31:20;;;;;;;4.03;0.80;;;19.70;85.80;;;;;;4863012;29;20132;-79
2022/07/09 16:49:22;;;;;;;8.75;1.58;;;18.20;91.30;;;;;;4987882;23;20405;-75
2022/07/09 18:32:20;;;;;;;7.97;1.33;;;16.30;95.00;;;;;;5871868;23;20102;-78
2022/07/09 18:38:23;;;;;;;10.73;2.15;;;16.30;96.10;;;;;;4934663;28;20111;-76
2022/07/09 18:41:07;;;;;;;7.63;1.48;;;16.20;96.30;;;;;;4902405;29;20115;-77
2022/07/09 18:43:37;;;;;;;9.90;1.80;;;16.10;96.70;;;;;;4925239;29;20043;-74
2022/07/09 18:46:13;;;;;;;9.80;1.77;;;16.20;96.60;;;;;;4906567;29;20044;-76
2022/07/09 18:48:39;;;;;;;7.18;1.15;;;16.30;96.80;;;;;;4917373;29;20046;-72
2022/07/09 18:51:07;;;;;;;8.68;1.52;;;16.30;96.50;;;;;;4913542;29;20047;-76
2022/07/09 18:53:33;;;;;;;8.52;1.33;;;16.30;96.60;;;;;;4921731;29;20039;-72
2022/07/09 18:59:28;;;;;;;6.15;1.52;;;16.10;96.30;;;;;;4923894;29;20456;-77
2022/07/09 19:02:13;;;;;;;7.75;1.92;;;16.10;95.80;;;;;;4910205;29;20085;-75
2022/07/09 19:04:39;;;;;;;7.38;1.75;;;16.10;95.70;;;;;;4930304;29;20563;-76
2022/07/09 19:07:05;;;;;;;10.80;1.80;;;15.90;96.30;;;;;;4918062;29;20043;-73
2022/07/09 19:09:34;;;;;;;6.78;1.40;;;15.90;96.50;;;;;;4921010;29;20039;-74
2022/07/09 19:12:02;;;;;;;9.88;1.50;;;15.90;96.30;;;;;;4917337;29;20047;-73
2022/07/09 19:14:31;;;;;;;10.23;1.75;;;15.80;96.40;;;;;;4917078;29;20103;-75
2022/07/09 19:34:55;;;;;;;9.13;1.25;;;15.80;96.50;;;;;;5599744;24;20107;-73
2022/07/09 19:37:31;;;;;;;14.57;1.92;;;15.80;96.60;;;;;;4751301;29;20051;-71
2022/07/09 19:39:57;;;;;;;6.35;1.33;;;15.90;96.80;;;;;;4765989;30;20398;-74
2022/07/09 19:42:31;;;;;;;7.68;1.25;;;15.90;96.70;;;;;;4754442;30;20105;-72
2022/07/09 19:44:59;;;;;;;12.73;1.63;;;15.90;97.20;;;;;;4766979;30;20042;-74
2022/07/09 19:47:26;;;;;;;8.60;1.73;;;15.90;97.50;;;;;;4775464;30;20043;-73
2022/07/09 19:49:52;;;;;;;10.90;2.00;;;15.70;98.90;;;;;;4744030;30;20130;-73
2022/07/09 19:52:18;;;;;;;14.73;1.77;;;15.50;99.90;;;;;;4760970;30;20122;-74
2022/07/09 19:54:44;;;;;;;6.88;1.50;;;15.40;99.90;;;;;;4755957;30;20056;-72
2022/07/09 20:24:24;;;;;;;13.23;2.00;;;15.30;99.90;;;;;;4695718;30;20293;-76
2022/07/09 20:27:00;;;;;;;8.32;1.42;;;15.30;99.90;;;;;;4746791;30;20047;-78
2022/07/09 20:30:05;;;;;;;9.95;1.95;;;15.20;99.90;;;;;;4731134;30;20079;-78
2022/07/09 20:33:20;;;;;;;9.88;2.25;;;15.20;99.90;;;;;;4726669;30;20048;-76
2022/07/09 20:35:58;;;;;;;;;;;;;;;;;;;;;
2022/07/09 20:42:44;;;;;;;13.80;2.40;;;15.20;99.90;;;;;;4755452;30;20050;-79
2022/07/09 20:45:25;;;;;;;6.47;1.42;;;15.20;99.90;;;;;;4742706;30;20138;-75
2022/07/09 20:48:02;;;;;;;12.75;1.70;;;15.10;99.90;;;;;;4730738;30;20399;-77
2022/07/09 20:50:34;;;;;;;9.40;1.75;;;15.20;99.90;;;;;;4729873;30;20052;-78
2022/07/09 20:53:03;;;;;;;11.40;1.75;;;14.90;99.90;;;;;;4729253;30;20114;-77
2022/07/09 20:55:34;;;;;;;12.32;2.60;;;14.80;99.90;;;;;;4745326;30;20056;-80
2022/07/09 21:10:34;;;;;;;8.48;2.17;;;14.60;99.90;;;;;;4950940;24;20062;-76
2022/07/09 21:33:18;;;;;;;;;;;;;;;;;;;;;
2022/07/09 21:44:36;;;;;;;9.07;1.67;;;14.90;98.80;;;;;;4697287;30;20069;-84
2022/07/09 21:47:55;;;;;;;10.23;2.13;;;14.80;99.40;;;;;;4563149;31;20569;-80
2022/07/09 21:54:28;;;;;;;7.80;1.60;;;14.80;99.50;;;;;;4691500;30;20136;-82
2022/07/09 21:57:05;;;;;;;15.18;1.55;;;14.90;99.80;;;;;;4714235;30;20147;-81
2022/07/09 21:59:53;;;;;;;9.00;1.40;;;14.90;99.80;;;;;;4741625;30;20043;-81
2022/07/09 22:02:40;;;;;;;9.65;1.70;;;14.90;99.90;;;;;;4748455;30;20051;-81
2022/07/09 22:05:23;;;;;;;11.32;1.88;;;14.90;99.90;;;;;;4742764;30;20063;-82
2022/07/09 22:08:31;;;;;;;;;;;;;;;;;;;;;
2022/07/09 22:11:37;;;;;;;10.60;1.90;;;14.90;99.90;;;;;;4755783;29;20062;-80
2022/07/09 22:14:34;;;;;;;15.18;2.45;;;14.90;99.90;;;;;;4780626;29;20062;-80
2022/07/09 22:17:03;;;;;;;11.60;2.03;;;14.90;99.90;;;;;;4777554;29;20066;-81
2022/07/09 22:19:43;;;;;;;14.07;2.10;;;14.90;99.90;;;;;;4791940;29;20059;-80
2022/07/09 22:22:34;;;;;;;14.00;1.80;;;14.90;99.90;;;;;;4775288;29;20420;-80
2022/07/09 22:25:18;;;;;;;27.88;2.20;;;14.90;99.90;;;;;;4779605;29;20396;-80
2022/07/09 22:28:33;;;;;;;8.45;1.50;;;14.90;99.90;;;;;;4781381;29;20070;-80
2022/07/09 22:31:39;;;;;;;10.55;1.85;;;14.90;99.90;;;;;;4760222;30;20043;-80
2022/07/09 22:34:42;;;;;;;10.30;1.45;;;15.00;99.90;;;;;;4773743;30;20406;-80
2022/07/09 22:37:44;;;;;;;7.75;1.77;;;15.00;99.90;;;;;;4756378;30;20481;-81
2022/07/09 22:40:21;;;;;;;11.60;1.70;;;15.00;99.50;;;;;;4772873;29;20133;-80
2022/07/09 22:43:46;;;;;;;11.73;2.17;;;15.00;99.50;;;;;;4770975;30;20060;-80
2022/07/09 22:46:38;;;;;;;8.82;1.58;;;15.00;99.40;;;;;;4755117;30;20102;-79
2022/07/09 22:49:18;;;;;;;11.45;2.55;;;14.90;99.50;;;;;;4748489;30;20158;-81
2022/07/09 22:52:30;;;;;;;10.18;2.05;;;14.90;99.60;;;;;;4737459;30;20131;-80